Time;durP1;ratioP1;P1;durP2;ratioP2;P2;SDS_P1;SDS_P2;PMS_P1;PMS_P2;Temp;Humidity;BMP_temperature;BMP_pressure;BME280_temperature;BME280_humidity;BME280_pressure;Samples;Min_cycle;Max_cycle;Signal;HPM_P1;HPM_P2
2021/11/28 00:02:19;;;;;;;;;;;;;;;27.52;64.07;100855.97;5068709;27;66246;-34
2021/11/28 00:04:49;;;;;;;;;;;;;;;27.54;64.25;100869.25;5072995;27;69627;-35
2021/11/28 00:10:18;;;;;;;;;;;;;;;27.57;64.32;100872.38;5046502;28;69828;-35
2021/11/28 00:13:00;;;;;;;;;;;;;;;27.59;64.42;100883.78;5057054;27;66463;-35
2021/11/28 00:15:32;;;;;;;;;;;;;;;27.59;64.53;100886.50;5058760;28;70101;-36
2021/11/28 00:18:03;;;;;;;;;;;;;;;27.60;64.54;100885.44;5059785;27;67162;-35
2021/11/28 00:20:35;;;;;;;;;;;;;;;27.59;64.62;100889.19;5056135;28;69110;-36
2021/11/28 00:23:05;;;;;;;;;;;;;;;27.63;64.72;100898.53;5036392;27;67195;-35
2021/11/28 00:25:36;;;;;;;;;;;;;;;27.67;65.72;100900.84;5053141;28;70011;-36
2021/11/28 00:28:06;;;;;;;;;;;;;;;27.71;66.19;100902.09;5073231;27;66161;-36
2021/11/28 00:30:38;;;;;;;;;;;;;;;27.71;66.98;100902.09;5058389;28;69930;-36
2021/11/28 00:33:12;;;;;;;;;;;;;;;27.71;67.12;100897.53;5043057;28;67067;-36
2021/11/28 00:35:45;;;;;;;;;;;;;;;27.75;67.98;100906.91;5058592;28;70128;-36
2021/11/28 00:38:16;;;;;;;;;;;;;;;27.80;68.11;100912.56;5059233;28;65401;-35
2021/11/28 00:40:46;;;;;;;;;;;;;;;27.83;68.58;100916.72;5064000;27;70234;-36
2021/11/28 00:43:19;;;;;;;;;;;;;;;27.84;68.08;100913.00;5057815;28;66565;-35
2021/11/28 00:45:50;;;;;;;;;;;;;;;27.83;67.77;100911.31;5071065;27;69217;-37
2021/11/28 00:48:24;;;;;;;;;;;;;;;27.81;67.59;100914.22;5070260;27;67380;-37
2021/11/28 00:51:11;;;;;;;;;;;;;;;27.83;67.47;100916.72;5054303;27;70321;-36
2021/11/28 00:53:41;;;;;;;;;;;;;;;27.86;66.98;100927.13;5068945;27;66979;-37
2021/11/28 00:56:11;;;;;;;;;;;;;;;27.88;67.93;100930.44;5052945;27;69150;-36
2021/11/28 00:58:43;;;;;;;;;;;;;;;27.93;68.96;100930.66;5054725;28;66408;-35
2021/11/28 01:01:15;;;;;;;;;;;;;;;27.96;69.32;100938.34;5075626;27;70468;-35
2021/11/28 01:03:46;;;;;;;;;;;;;;;27.97;69.82;100945.44;5060873;28;65740;-36
2021/11/28 01:06:17;;;;;;;;;;;;;;;27.98;70.03;100952.47;5052080;27;70739;-35
2021/11/28 01:08:47;;;;;;;;;;;;;;;28.00;70.30;100955.81;5075520;27;65742;-36
2021/11/28 01:11:20;;;;;;;;;;;;;;;28.01;69.84;100960.16;5058585;28;70124;-36
2021/11/28 01:13:51;;;;;;;;;;;;;;;28.00;70.48;100960.34;5073538;27;66424;-36
2021/11/28 01:16:22;;;;;;;;;;;;;;;27.88;70.61;100946.59;5044861;28;71313;-36
2021/11/28 01:18:53;;;;;;;;;;;;;;;27.85;71.25;100963.19;5059335;28;66371;-35
2021/11/28 01:21:24;;;;;;;;;;;;;;;27.84;70.96;100961.53;5075706;27;70470;-38
2021/11/28 01:23:55;;;;;;;;;;;;;;;27.83;71.13;100967.94;5060264;27;65290;-35
2021/11/28 01:26:28;;;;;;;;;;;;;;;27.86;70.91;100970.25;5075191;27;70328;-36
2021/11/28 01:28:58;;;;;;;;;;;;;;;27.86;71.62;100972.94;5052738;27;65804;-35
2021/11/28 01:31:30;;;;;;;;;;;;;;;27.84;71.65;100966.91;5056052;28;69984;-35
2021/11/28 01:34:00;;;;;;;;;;;;;;;27.87;70.61;100971.91;5071627;27;66528;-35
2021/11/28 01:36:31;;;;;;;;;;;;;;;27.88;70.88;100968.16;5055075;28;70028;-37
2021/11/28 01:39:05;;;;;;;;;;;;;;;27.95;70.57;100974.44;5057682;27;66067;-37
2021/11/28 01:41:37;;;;;;;;;;;;;;;27.98;70.52;100968.66;5039282;28;70208;-38
2021/11/28 01:44:07;;;;;;;;;;;;;;;27.94;70.62;100961.97;5072909;27;67403;-36
2021/11/28 01:46:38;;;;;;;;;;;;;;;27.94;71.57;100972.75;5076083;27;70304;-36
2021/11/28 01:49:10;;;;;;;;;;;;;;;27.99;70.51;100978.41;5072928;27;66383;-36
2021/11/28 01:51:41;;;;;;;;;;;;;;;27.99;69.60;100970.31;5058330;28;69971;-39
2021/11/28 01:54:14;;;;;;;;;;;;;;;28.01;69.58;100973.66;5041581;27;66413;-37
2021/11/28 01:56:49;;;;;;;;;;;;;;;28.00;70.06;100971.13;5070163;27;71805;-36
2021/11/28 01:59:19;;;;;;;;;;;;;;;28.03;69.96;100971.59;5060322;27;66274;-37
2021/11/28 02:01:51;;;;;;;;;;;;;;;28.06;69.33;100971.19;5072144;27;69711;-37
2021/11/28 02:04:22;;;;;;;;;;;;;;;28.11;69.14;100958.97;5073154;27;66740;-36
2021/11/28 02:06:52;;;;;;;;;;;;;;;28.07;69.46;100959.38;5064538;27;70711;-37
2021/11/28 02:09:22;;;;;;;;;;;;;;;28.11;69.67;100961.66;5072625;27;66163;-36
2021/11/28 02:11:52;;;;;;;;;;;;;;;28.22;69.01;100958.41;5063835;27;70019;-36
2021/11/28 02:14:23;;;;;;;;;;;;;;;28.24;69.30;100961.72;5077590;27;66133;-35
2021/11/28 02:16:53;;;;;;;;;;;;;;;28.20;69.71;100955.09;5070302;27;69607;-35
2021/11/28 02:19:24;;;;;;;;;;;;;;;28.22;69.06;100953.00;5073563;27;65535;-35
2021/11/28 02:21:53;;;;;;;;;;;;;;;28.27;68.76;100947.84;5076256;27;69894;-35
2021/11/28 02:24:23;;;;;;;;;;;;;;;28.32;68.88;100942.69;5075319;27;66518;-35
2021/11/28 02:26:55;;;;;;;;;;;;;;;28.38;68.25;100941.88;5075260;27;69236;-35
2021/11/28 02:29:25;;;;;;;;;;;;;;;28.42;68.48;100937.78;5076110;27;66816;-36
2021/11/28 02:31:55;;;;;;;;;;;;;;;28.47;68.59;100937.16;5073187;27;70534;-36
2021/11/28 02:34:25;;;;;;;;;;;;;;;28.50;68.13;100929.50;5075779;27;66824;-36
2021/11/28 02:36:55;;;;;;;;;;;;;;;28.56;68.56;100932.44;5075434;27;70802;-35
2021/11/28 02:39:26;;;;;;;;;;;;;;;28.60;68.03;100922.88;5076088;27;65757;-35
2021/11/28 02:41:56;;;;;;;;;;;;;;;28.63;68.33;100922.47;5059020;28;70429;-35
2021/11/28 02:44:27;;;;;;;;;;;;;;;28.66;67.78;100916.66;5076622;27;66578;-35
2021/11/28 02:46:57;;;;;;;;;;;;;;;28.69;67.75;100913.53;5057437;28;69021;-35
2021/11/28 02:49:27;;;;;;;;;;;;;;;28.72;67.70;100918.53;5075855;27;66751;-36
2021/11/28 02:51:57;;;;;;;;;;;;;;;28.61;67.63;100889.44;5076589;27;69284;-37
2021/11/28 02:54:27;;;;;;;;;;;;;;;28.78;68.02;100906.06;5076316;27;65482;-36
2021/11/28 02:56:57;;;;;;;;;;;;;;;28.62;67.95;100874.94;5077468;27;69955;-37
2021/11/28 02:59:27;;;;;;;;;;;;;;;28.83;67.62;100906.28;5076248;27;66744;-36
2021/11/28 03:01:58;;;;;;;;;;;;;;;28.85;67.96;100905.06;5074725;27;69977;-38
2021/11/28 03:04:51;;;;;;;;;;;;;;;28.89;67.53;100906.31;5073343;27;65315;-36
2021/11/28 03:07:21;;;;;;;;;;;;;;;28.92;67.47;100897.81;5074572;27;69854;-36
2021/11/28 03:09:52;;;;;;;;;;;;;;;28.95;67.58;100900.09;5076396;27;66645;-36
2021/11/28 03:12:22;;;;;;;;;;;;;;;28.97;67.68;100883.66;5075942;27;70013;-36
2021/11/28 03:14:52;;;;;;;;;;;;;;;29.00;67.65;100890.53;5077083;27;67332;-36
2021/11/28 03:17:22;;;;;;;;;;;;;;;29.03;67.66;100884.69;5076410;27;69217;-36
2021/11/28 03:19:52;;;;;;;;;;;;;;;28.92;67.55;100862.69;5076866;27;66946;-36
2021/11/28 03:22:22;;;;;;;;;;;;;;;29.09;67.27;100883.94;5072289;27;70240;-37
2021/11/28 03:24:52;;;;;;;;;;;;;;;29.10;67.20;100869.38;5056305;27;66580;-35
2021/11/28 03:27:22;;;;;;;;;;;;;;;29.09;67.89;100876.66;5054404;27;68915;-37
2021/11/28 03:29:52;;;;;;;;;;;;;;;29.12;67.71;100868.13;5071480;27;65677;-37
2021/11/28 03:32:54;;;;;;;;;;;;;;;29.13;67.47;100869.78;5062526;27;69695;-37
2021/11/28 03:35:42;;;;;;;;;;;;;;;29.17;67.25;100859.41;5070293;27;65681;-37
2021/11/28 03:38:12;;;;;;;;;;;;;;;29.20;67.07;100853.59;5048299;28;69472;-35
2021/11/28 03:40:42;;;;;;;;;;;;;;;29.23;66.78;100852.34;5080441;27;66476;-38
2021/11/28 03:43:12;;;;;;;;;;;;;;;29.28;65.98;100847.97;5072693;27;69778;-37
2021/11/28 03:45:42;;;;;;;;;;;;;;;29.30;66.31;100848.56;5070949;27;67141;-38
2021/11/28 03:48:12;;;;;;;;;;;;;;;29.33;66.44;100845.44;5070324;27;69336;-37
2021/11/28 03:50:45;;;;;;;;;;;;;;;29.32;66.28;100830.28;5067458;27;66412;-37
2021/11/28 03:53:19;;;;;;;;;;;;;;;29.39;65.78;100841.91;5048567;28;69741;-37
2021/11/28 03:55:51;;;;;;;;;;;;;;;29.43;65.34;100830.69;5062097;27;66643;-37
2021/11/28 03:58:22;;;;;;;;;;;;;;;29.47;65.37;100831.91;5068808;27;69489;-36
2021/11/28 04:00:52;;;;;;;;;;;;;;;29.50;65.26;100831.47;5056058;27;66134;-35
2021/11/28 04:03:22;;;;;;;;;;;;;;;29.53;65.00;100828.34;5061367;27;70311;-36
2021/11/28 04:05:53;;;;;;;;;;;;;;;29.57;65.43;100816.06;5051248;27;66774;-37
2021/11/28 04:08:25;;;;;;;;;;;;;;;29.60;65.35;100815.66;5055256;27;70087;-37
2021/11/28 04:10:56;;;;;;;;;;;;;;;29.59;65.06;100797.78;5053805;27;66500;-37
2021/11/28 04:13:26;;;;;;;;;;;;;;;29.69;65.11;100803.56;5067508;27;69844;-36
2021/11/28 04:15:56;;;;;;;;;;;;;;;29.71;65.06;100796.09;5067825;27;67004;-38
2021/11/28 04:18:30;;;;;;;;;;;;;;;29.74;64.51;100795.66;5068992;27;69582;-37
2021/11/28 04:21:01;;;;;;;;;;;;;;;29.76;64.19;100793.56;5065721;27;66913;-37
2021/11/28 04:23:35;;;;;;;;;;;;;;;29.82;64.39;100792.72;5058821;27;70253;-36
2021/11/28 04:26:05;;;;;;;;;;;;;;;29.86;64.33;100786.88;5059435;27;65404;-36
2021/11/28 04:28:36;;;;;;;;;;;;;;;29.87;64.20;100780.44;5068599;27;69212;-37
2021/11/28 04:31:06;;;;;;;;;;;;;;;29.91;63.18;100778.94;5069526;27;67165;-36
2021/11/28 04:33:37;;;;;;;;;;;;;;;29.93;63.57;100787.69;5070324;27;70034;-36
2021/11/28 04:36:08;;;;;;;;;;;;;;;29.97;63.23;100772.66;5067527;27;66027;-37
2021/11/28 04:38:38;;;;;;;;;;;;;;;30.00;63.15;100766.81;5068382;27;69473;-37
2021/11/28 04:41:10;;;;;;;;;;;;;;;30.01;62.58;100757.69;5063449;27;66586;-36
2021/11/28 04:43:46;;;;;;;;;;;;;;;30.07;62.81;100751.38;5057936;27;70271;-37
2021/11/28 04:46:16;;;;;;;;;;;;;;;30.11;63.07;100752.59;5068708;27;66696;-37
2021/11/28 04:48:48;;;;;;;;;;;;;;;30.11;62.48;100740.94;5068112;27;70041;-36
2021/11/28 04:51:37;;;;;;;;;;;;;;;30.14;62.74;100741.34;5059861;27;67089;-35
2021/11/28 04:54:08;;;;;;;;;;;;;;;30.16;62.64;100741.97;5059800;27;71084;-37
2021/11/28 04:56:38;;;;;;;;;;;;;;;30.19;63.05;100727.16;5055359;27;66115;-36
2021/11/28 04:59:08;;;;;;;;;;;;;;;30.24;63.60;100730.91;5060959;27;69542;-37
2021/11/28 05:01:43;;;;;;;;;;;;;;;30.28;62.46;100721.31;5032752;27;66722;-36
2021/11/28 05:04:25;;;;;;;;;;;;;;;30.36;61.95;100732.91;5066732;27;69522;-35
2021/11/28 05:07:13;;;;;;;;;;;;;;;30.42;61.76;100723.88;5071255;27;66895;-36
2021/11/28 05:09:55;;;;;;;;;;;;;;;30.42;61.75;100721.19;5086826;27;70070;-37
2021/11/28 05:12:25;;;;;;;;;;;;;;;30.45;61.45;100709.91;5075366;27;64946;-36
2021/11/28 05:14:56;;;;;;;;;;;;;;;30.45;61.03;100704.50;5070688;27;69864;-36
2021/11/28 05:17:27;;;;;;;;;;;;;;;30.49;61.58;100700.31;5068408;27;65682;-35
2021/11/28 05:20:00;;;;;;;;;;;;;;;30.52;62.54;100705.28;5067961;27;69654;-35
2021/11/28 05:22:36;;;;;;;;;;;;;;;30.54;62.19;100697.78;5076639;27;66416;-35
2021/11/28 05:25:07;;;;;;;;;;;;;;;30.55;62.48;100688.59;5071117;27;69891;-35
2021/11/28 05:27:37;;;;;;;;;;;;;;;30.56;62.36;100689.41;5069259;27;66415;-34
2021/11/28 05:30:08;;;;;;;;;;;;;;;30.56;62.08;100678.59;5067460;27;70430;-35
2021/11/28 05:32:57;;;;;;;;;;;;;;;30.53;63.14;100671.72;5067629;27;66275;-38
2021/11/28 05:35:53;;;;;;;;;;;;;;;30.55;63.14;100669.63;5052179;27;70589;-35
2021/11/28 05:38:36;;;;;;;;;;;;;;;30.34;60.90;100654.66;5048256;28;66198;-35
2021/11/28 05:41:07;;;;;;;;;;;;;;;30.21;59.46;100655.56;5068331;27;69334;-35
2021/11/28 05:43:40;;;;;;;;;;;;;;;30.04;57.68;100654.47;5068090;27;66067;-34
2021/11/28 05:46:11;;;;;;;;;;;;;;;29.89;55.51;100645.81;5064577;27;70577;-36
2021/11/28 05:48:59;;;;;;;;;;;;;;;29.77;54.47;100640.28;5068863;27;67161;-37
2021/11/28 05:51:52;;;;;;;;;;;;;;;29.62;52.54;100637.88;5059644;27;68946;-35
2021/11/28 05:54:22;;;;;;;;;;;;;;;29.53;52.11;100631.03;5062589;27;65506;-36
2021/11/28 05:56:53;;;;;;;;;;;;;;;29.46;51.37;100632.97;5066138;27;70349;-36
2021/11/28 05:59:23;;;;;;;;;;;;;;;29.35;50.38;100620.97;5060720;27;66460;-36
2021/11/28 06:01:54;;;;;;;;;;;;;;;29.26;50.17;100620.41;5031127;28;68213;-36
2021/11/28 06:04:25;;;;;;;;;;;;;;;29.18;49.08;100612.53;5049750;27;66381;-36
2021/11/28 06:07:16;;;;;;;;;;;;;;;29.12;48.75;100613.41;5069400;27;69371;-35
2021/11/28 06:09:47;;;;;;;;;;;;;;;28.91;47.71;100591.00;5052147;27;66408;-36
2021/11/28 06:12:21;;;;;;;;;;;;;;;29.00;48.87;100605.09;5065892;28;69029;-36
2021/11/28 06:14:51;;;;;;;;;;;;;;;28.96;48.95;100599.31;5069327;27;65764;-36
2021/11/28 06:17:22;;;;;;;;;;;;;;;28.78;48.44;100583.00;5068655;27;69593;-36
2021/11/28 06:20:27;;;;;;;;;;;;;;;28.85;47.76;100601.84;5053036;28;66124;-34
2021/11/28 06:23:15;;;;;;;;;;;;;;;28.76;47.09;100593.16;5064205;27;69994;-35
2021/11/28 06:25:44;;;;;;;;;;;;;;;28.68;46.64;100577.19;5070346;27;65770;-36
2021/11/28 06:28:34;;;;;;;;;;;;;;;28.67;46.25;100583.66;5069663;27;70724;-35
2021/11/28 06:31:04;;;;;;;;;;;;;;;28.61;45.60;100577.22;5068461;27;66515;-36
2021/11/28 06:34:13;;;;;;;;;;;;;;;28.57;44.78;100572.47;5052471;27;69912;-36
2021/11/28 06:37:01;;;;;;;;;;;;;;;28.52;44.86;100565.00;5069619;27;66281;-35
2021/11/28 06:39:49;;;;;;;;;;;;;;;28.48;44.63;100559.19;5070497;27;69447;-35
2021/11/28 06:42:48;;;;;;;;;;;;;;;28.45;44.36;100548.00;5068522;27;68202;-36
2021/11/28 06:45:19;;;;;;;;;;;;;;;28.41;43.94;100536.75;5071050;27;70025;-34
2021/11/28 06:47:51;;;;;;;;;;;;;;;28.37;44.04;100535.53;5069863;27;67505;-35
2021/11/28 06:50:22;;;;;;;;;;;;;;;28.35;44.14;100534.91;5071326;27;70512;-35
2021/11/28 06:53:10;;;;;;;;;;;;;;;28.33;43.58;100528.91;5071369;27;66199;-35
2021/11/28 06:56:06;;;;;;;;;;;;;;;28.28;43.62;100521.47;5066649;27;70856;-35
2021/11/28 06:58:47;;;;;;;;;;;;;;;28.25;43.21;100521.88;5070547;27;65465;-35
2021/11/28 07:01:17;;;;;;;;;;;;;;;28.23;42.89;100523.13;5073351;27;70165;-37
2021/11/28 07:04:07;;;;;;;;;;;;;;;28.18;42.74;100521.06;5071816;27;67524;-35
2021/11/28 07:07:10;;;;;;;;;;;;;;;28.15;42.52;100515.25;5067904;27;70069;-35
2021/11/28 07:09:46;;;;;;;;;;;;;;;28.17;42.83;100513.19;5070082;27;65664;-35
2021/11/28 07:12:17;;;;;;;;;;;;;;;28.14;43.36;100503.66;5069423;27;69448;-36
2021/11/28 07:14:47;;;;;;;;;;;;;;;28.11;43.07;100500.53;5072088;27;66196;-36
2021/11/28 07:17:20;;;;;;;;;;;;;;;28.11;42.91;100498.69;5071445;27;69997;-36
2021/11/28 07:19:51;;;;;;;;;;;;;;;28.10;42.70;100491.63;5068886;27;66051;-36
2021/11/28 07:22:33;;;;;;;;;;;;;;;28.10;42.47;100496.19;5070782;27;69547;-36
2021/11/28 07:25:04;;;;;;;;;;;;;;;28.09;42.28;100494.53;5069329;27;66349;-36
2021/11/28 07:27:34;;;;;;;;;;;;;;;28.05;42.67;100489.56;5071265;27;70545;-36
2021/11/28 07:30:06;;;;;;;;;;;;;;;28.06;42.50;100485.81;5071240;27;66700;-35
2021/11/28 07:32:39;;;;;;;;;;;;;;;28.02;42.43;100487.25;5056961;27;70483;-35
2021/11/28 07:35:28;;;;;;;;;;;;;;;28.03;42.65;100480.84;5072708;27;66665;-36
2021/11/28 07:38:08;;;;;;;;;;;;;;;28.00;42.41;100473.19;5068522;27;69774;-35
2021/11/28 07:40:39;;;;;;;;;;;;;;;27.98;42.18;100474.44;5065142;27;66072;-36
2021/11/28 07:43:27;;;;;;;;;;;;;;;27.95;42.05;100467.59;5068919;27;70330;-36
2021/11/28 07:46:27;;;;;;;;;;;;;;;27.92;42.21;100472.59;5051924;28;65684;-36
2021/11/28 07:49:02;;;;;;;;;;;;;;;27.92;41.85;100478.81;5073678;27;69870;-36
2021/11/28 07:51:33;;;;;;;;;;;;;;;27.89;41.92;100468.44;5075989;27;65508;-34
2021/11/28 07:54:06;;;;;;;;;;;;;;;27.87;41.77;100481.28;5074799;27;70434;-34
2021/11/28 07:56:36;;;;;;;;;;;;;;;27.84;42.22;100477.16;5039803;28;65525;-35
2021/11/28 07:59:24;;;;;;;;;;;;;;;27.84;41.72;100481.72;5071751;27;70754;-37
2021/11/28 08:01:56;;;;;;;;;;;;;;;27.83;41.57;100480.03;5075132;27;66082;-36
2021/11/28 08:04:42;;;;;;;;;;;;;;;27.94;46.23;100484.78;5073542;27;70094;-34
2021/11/28 08:07:30;;;;;;;;;;;;;;;27.97;46.24;100484.41;5076628;27;67046;-35
2021/11/28 08:10:30;;;;;;;;;;;;;;;27.94;45.02;100487.47;5071892;27;70629;-35
2021/11/28 08:13:00;;;;;;;;;;;;;;;27.96;45.10;100490.81;5073928;27;65588;-36
2021/11/28 08:15:30;;;;;;;;;;;;;;;27.93;44.54;100498.50;5073632;27;70424;-35
2021/11/28 08:18:00;;;;;;;;;;;;;;;27.92;44.38;100497.66;5073701;27;65473;-37
2021/11/28 08:20:30;;;;;;;;;;;;;;;27.85;43.87;100488.75;5074205;27;70093;-35
2021/11/28 08:23:00;;;;;;;;;;;;;;;27.87;43.59;100492.06;5072848;27;67040;-35
2021/11/28 08:25:30;;;;;;;;;;;;;;;27.84;43.32;100487.09;5075215;27;70013;-36
2021/11/28 08:28:01;;;;;;;;;;;;;;;27.83;43.18;100485.44;5074205;27;66155;-36
2021/11/28 08:30:31;;;;;;;;;;;;;;;27.80;42.92;100483.16;5071369;27;69828;-36
2021/11/28 08:33:01;;;;;;;;;;;;;;;27.79;42.87;100482.34;5074313;27;65571;-35
2021/11/28 08:35:51;;;;;;;;;;;;;;;27.73;43.27;100472.38;5074380;27;69531;-35
2021/11/28 08:38:21;;;;;;;;;;;;;;;27.73;43.32;100482.31;5076343;27;66036;-35
2021/11/28 08:40:51;;;;;;;;;;;;;;;27.71;43.15;100476.31;5073938;27;70019;-35
2021/11/28 08:43:21;;;;;;;;;;;;;;;27.70;43.04;100480.03;5090087;27;67191;-35
2021/11/28 08:45:52;;;;;;;;;;;;;;;27.66;42.85;100474.22;5056977;27;69038;-36
2021/11/28 08:48:22;;;;;;;;;;;;;;;27.63;42.96;100483.53;5074607;27;66623;-35
2021/11/28 08:50:51;;;;;;;;;;;;;;;27.59;42.88;100479.63;5077054;27;70921;-36
2021/11/28 08:53:21;;;;;;;;;;;;;;;27.60;43.68;100481.28;5069406;28;67229;-36
2021/11/28 08:55:52;;;;;;;;;;;;;;;27.42;44.02;100456.84;5074504;27;69480;-35
2021/11/28 08:58:22;;;;;;;;;;;;;;;27.61;43.59;100482.94;5075183;27;66958;-35
2021/11/28 09:00:52;;;;;;;;;;;;;;;27.63;43.63;100490.81;5076471;27;70020;-35
2021/11/28 09:03:23;;;;;;;;;;;;;;;27.66;50.87;100494.94;5061805;27;66340;-36
2021/11/28 09:05:52;;;;;;;;;;;;;;;27.86;58.39;100506.59;5075718;27;69875;-36
2021/11/28 09:08:23;;;;;;;;;;;;;;;28.06;62.28;100515.47;5075808;27;67133;-35
2021/11/28 09:10:53;;;;;;;;;;;;;;;28.30;64.82;100513.13;5068444;27;70648;-36
2021/11/28 09:13:23;;;;;;;;;;;;;;;28.48;66.10;100515.22;5073139;27;66572;-35
2021/11/28 09:15:52;;;;;;;;;;;;;;;28.65;65.99;100510.97;5072251;27;70090;-38
2021/11/28 09:18:42;;;;;;;;;;;;;;;28.79;66.70;100516.31;5073794;27;66768;-36
2021/11/28 09:21:15;;;;;;;;;;;;;;;28.92;65.97;100527.88;5074914;27;70099;-36
2021/11/28 09:26:34;;;;;;;;;;;;;;;29.08;66.45;100531.97;5075192;27;70093;-36
2021/11/28 09:29:05;;;;;;;;;;;;;;;29.14;66.40;100532.97;5073707;27;65827;-36
2021/11/28 09:31:35;;;;;;;;;;;;;;;29.19;67.18;100533.16;5075450;27;70052;-37
2021/11/28 09:34:05;;;;;;;;;;;;;;;29.25;68.15;100531.47;5074396;27;65603;-37
2021/11/28 09:36:35;;;;;;;;;;;;;;;29.31;66.93;100536.84;5070165;28;69263;-37
2021/11/28 09:39:06;;;;;;;;;;;;;;;29.34;66.81;100540.97;5071472;27;66423;-37
2021/11/28 09:42:01;;;;;;;;;;;;;;;29.38;67.72;100532.19;5054668;27;69938;-37
2021/11/28 09:44:32;;;;;;;;;;;;;;;29.42;67.04;100550.69;5061873;27;65611;-38
2021/11/28 09:47:03;;;;;;;;;;;;;;;29.45;66.74;100542.13;5075555;27;71147;-38
2021/11/28 09:49:34;;;;;;;;;;;;;;;29.46;67.03;100544.63;5072034;27;65359;-37
2021/11/28 09:52:05;;;;;;;;;;;;;;;29.51;66.24;100552.09;5075691;27;69768;-37
2021/11/28 09:54:37;;;;;;;;;;;;;;;29.50;66.40;100561.22;5074029;27;66771;-37
2021/11/28 09:57:10;;;;;;;;;;;;;;;29.55;66.34;100564.91;5072426;27;69229;-37
2021/11/28 09:59:42;;;;;;;;;;;;;;;29.60;65.49;100578.63;5074619;27;66127;-37
2021/11/28 10:02:41;;;;;;;;;;;;;;;29.63;65.10;100588.19;5067084;27;69583;-36
2021/11/28 10:05:13;;;;;;;;;;;;;;;29.69;66.24;100587.31;5063935;27;65952;-36
2021/11/28 10:07:44;;;;;;;;;;;;;;;29.69;66.46;100597.31;5067856;27;70758;-37
2021/11/28 10:10:16;;;;;;;;;;;;;;;29.72;66.86;100603.09;5068676;27;66028;-36
2021/11/28 10:12:49;;;;;;;;;;;;;;;29.71;67.18;100603.31;5070402;27;70833;-37
2021/11/28 10:15:20;;;;;;;;;;;;;;;29.71;68.23;100601.44;5072493;27;66455;-36
2021/11/28 10:17:50;;;;;;;;;;;;;;;29.73;68.45;100609.34;5076834;27;69962;-36
2021/11/28 10:20:23;;;;;;;;;;;;;;;29.72;68.58;100608.50;5077507;27;66888;-36
2021/11/28 10:22:53;;;;;;;;;;;;;;;29.74;69.76;100613.69;5077280;27;70520;-36
2021/11/28 10:25:28;;;;;;;;;;;;;;;29.73;69.78;100625.56;5074804;27;66124;-36
2021/11/28 10:28:04;;;;;;;;;;;;;;;29.70;70.73;100632.25;5073394;27;69890;-37
2021/11/28 10:30:35;;;;;;;;;;;;;;;29.67;71.80;100635.38;5073294;27;67254;-36
2021/11/28 10:33:07;;;;;;;;;;;;;;;29.64;72.25;100633.09;5075291;27;69569;-37
2021/11/28 10:35:38;;;;;;;;;;;;;;;29.60;72.51;100648.06;5075158;27;66199;-37
2021/11/28 10:38:13;;;;;;;;;;;;;;;29.57;72.82;100648.50;5078443;27;70512;-36
2021/11/28 10:40:45;;;;;;;;;;;;;;;29.48;73.62;100645.22;5076523;27;66330;-36
2021/11/28 10:43:18;;;;;;;;;;;;;;;29.46;74.02;100652.72;5077847;27;68837;-35
2021/11/28 10:45:51;;;;;;;;;;;;;;;29.42;74.11;100656.06;5078226;27;66473;-39
2021/11/28 10:48:30;;;;;;;;;;;;;;;29.39;73.57;100658.16;5071191;27;70088;-36
2021/11/28 10:51:00;;;;;;;;;;;;;;;29.32;73.35;100661.94;5072406;27;65817;-37
2021/11/28 10:53:47;;;;;;;;;;;;;;;29.30;73.22;100664.84;5071121;27;70220;-37
2021/11/28 10:56:17;;;;;;;;;;;;;;;29.26;73.26;100658.22;5073127;27;65702;-37
2021/11/28 10:58:48;;;;;;;;;;;;;;;29.27;73.82;100649.06;5068941;27;70115;-37
2021/11/28 11:01:18;;;;;;;;;;;;;;;29.24;73.79;100654.91;5070410;27;67047;-37
2021/11/28 11:03:48;;;;;;;;;;;;;;;29.26;73.71;100662.81;5049921;28;70017;-37
2021/11/28 11:06:25;;;;;;;;;;;;;;;29.28;73.98;100672.34;5075312;27;66726;-37
2021/11/28 11:09:27;;;;;;;;;;;;;;;29.25;73.57;100671.94;5072740;27;70349;-37
2021/11/28 11:12:15;;;;;;;;;;;;;;;29.21;73.91;100676.94;5046006;27;65340;-36
2021/11/28 11:14:45;;;;;;;;;;;;;;;29.24;73.51;100678.38;5070450;27;70343;-38
2021/11/28 11:17:20;;;;;;;;;;;;;;;29.27;73.63;100678.78;5072828;27;66019;-37
2021/11/28 11:19:50;;;;;;;;;;;;;;;29.23;74.00;100680.28;5071368;27;70624;-37
2021/11/28 11:22:29;;;;;;;;;;;;;;;29.20;74.05;100675.28;5073659;27;66170;-37
2021/11/28 11:25:01;;;;;;;;;;;;;;;29.18;73.89;100674.69;5073748;27;69544;-37
2021/11/28 11:27:33;;;;;;;;;;;;;;;29.18;73.87;100682.78;5073967;27;66994;-37
2021/11/28 11:30:23;;;;;;;;;;;;;;;29.17;73.89;100681.94;5073162;27;70142;-36
2021/11/28 11:32:57;;;;;;;;;;;;;;;29.15;74.02;100681.31;5068964;28;66438;-36
2021/11/28 11:35:29;;;;;;;;;;;;;;;29.19;73.96;100692.53;5070909;27;70573;-38
2021/11/28 11:38:04;;;;;;;;;;;;;;;29.19;74.27;100695.22;5053141;28;66269;-37
2021/11/28 11:40:34;;;;;;;;;;;;;;;29.17;73.97;100703.56;5071230;27;70245;-40
2021/11/28 11:43:04;;;;;;;;;;;;;;;29.18;74.61;100715.19;5065028;27;65544;-36
2021/11/28 11:45:38;;;;;;;;;;;;;;;29.22;74.03;100726.38;5065975;27;70492;-37
2021/11/28 11:48:09;;;;;;;;;;;;;;;29.21;74.00;100741.78;5063837;28;65833;-38
2021/11/28 11:50:41;;;;;;;;;;;;;;;29.23;74.25;100733.47;5066034;27;70085;-36
2021/11/28 11:53:12;;;;;;;;;;;;;;;29.22;73.59;100737.19;5065616;27;65936;-36
2021/11/28 11:55:42;;;;;;;;;;;;;;;29.06;73.87;100730.38;5067409;27;70505;-36
2021/11/28 11:58:33;;;;;;;;;;;;;;;29.15;73.99;100754.25;5067534;27;66627;-37
2021/11/28 12:01:17;;;;;;;;;;;;;;;29.13;74.44;100761.72;5066298;27;70308;-38
2021/11/28 12:03:54;;;;;;;;;;;;;;;29.14;74.49;100767.97;5068208;27;66376;-37
2021/11/28 12:06:43;;;;;;;;;;;;;;;29.12;74.25;100776.28;5071080;27;70602;-39
2021/11/28 12:09:24;;;;;;;;;;;;;;;29.14;74.49;100776.91;5071081;27;65499;-37
2021/11/28 12:11:58;;;;;;;;;;;;;;;29.14;74.84;100789.56;5070225;27;69344;-37
2021/11/28 12:14:28;;;;;;;;;;;;;;;29.18;74.80;100782.72;5051218;28;65863;-37
2021/11/28 12:16:59;;;;;;;;;;;;;;;29.16;75.30;100795.59;5071710;27;70254;-37
2021/11/28 12:19:43;;;;;;;;;;;;;;;29.26;75.18;100793.31;5070019;27;66807;-37
2021/11/28 12:22:31;;;;;;;;;;;;;;;29.30;74.61;100794.53;5070206;27;69573;-39
2021/11/28 12:25:20;;;;;;;;;;;;;;;29.28;74.19;100804.72;5069548;27;65785;-37
2021/11/28 12:27:52;;;;;;;;;;;;;;;29.18;75.85;100812.44;5065794;27;70914;-36
2021/11/28 12:30:32;;;;;;;;;;;;;;;29.22;75.24;100823.63;5069963;27;66008;-37
2021/11/28 12:33:02;;;;;;;;;;;;;;;29.26;75.52;100841.94;5061684;27;70504;-37
2021/11/28 12:35:38;;;;;;;;;;;;;;;29.30;75.39;100862.06;5072929;27;65784;-39
2021/11/28 12:38:09;;;;;;;;;;;;;;;29.35;75.54;100853.34;5067811;27;70229;-35
2021/11/28 12:40:46;;;;;;;;;;;;;;;29.38;76.08;100861.84;5063857;27;65930;-36
2021/11/28 12:43:23;;;;;;;;;;;;;;;29.43;76.35;100868.50;5051768;28;70295;-36
2021/11/28 12:45:53;;;;;;;;;;;;;;;29.46;76.96;100874.31;5072008;27;66499;-35
2021/11/28 12:48:24;;;;;;;;;;;;;;;29.31;73.41;100850.25;5033195;28;69796;-37
2021/11/28 12:51:05;;;;;;;;;;;;;;;29.07;71.05;100859.81;5050305;27;65929;-35
2021/11/28 12:53:43;;;;;;;;;;;;;;;28.80;68.30;100858.94;5070049;27;70568;-35
2021/11/28 12:56:18;;;;;;;;;;;;;;;28.60;66.76;100863.50;5075221;27;66470;-35
2021/11/28 12:59:15;;;;;;;;;;;;;;;28.36;64.93;100852.22;5051365;28;70125;-38
2021/11/28 13:01:48;;;;;;;;;;;;;;;28.15;64.23;100855.06;5069516;27;66640;-37
2021/11/28 13:04:36;;;;;;;;;;;;;;;27.98;63.03;100854.59;5064952;27;70254;-36
2021/11/28 13:07:23;;;;;;;;;;;;;;;27.79;61.38;100856.97;5069744;27;66762;-35
2021/11/28 13:09:56;;;;;;;;;;;;;;;27.71;62.71;100865.19;5073154;27;70224;-36
2021/11/28 13:12:27;;;;;;;;;;;;;;;27.61;61.68;100865.56;5035851;28;65248;-36
2021/11/28 13:15:00;;;;;;;;;;;;;;;27.51;60.96;100867.78;5072429;27;70376;-34
2021/11/28 13:17:30;;;;;;;;;;;;;;;27.42;59.47;100866.28;5054423;28;64927;-34
2021/11/28 13:20:02;;;;;;;;;;;;;;;27.34;59.65;100872.66;5066979;27;70085;-35